Time;durP1;ratioP1;P1;durP2;ratioP2;P2;SDS_P1;SDS_P2;PMS_P1;PMS_P2;Temp;Humidity;BMP_temperature;BMP_pressure;BME280_temperature;BME280_humidity;BME280_pressure;Samples;Min_cycle;Max_cycle;Signal;HPM_P1;HPM_P2
2022/12/02 00:00:18;;;;;;;;;47.00;34.25;;;;;;;;5104092;27;62142;-79
2022/12/02 00:02:43;;;;;;;;;27.50;19.25;;;;;;;;5103390;27;62111;-78
2022/12/02 00:05:15;;;;;;;;;31.50;25.75;;;;;;;;5105241;27;61943;-79
2022/12/02 00:07:47;;;;;;;;;40.75;31.50;;;;;;;;5103623;27;61902;-79
2022/12/02 00:10:23;;;;;;;;;35.00;27.25;;;;;;;;5105378;27;61912;-78
2022/12/02 00:12:49;;;;;;;;;39.00;28.25;;;;;;;;5102935;27;63046;-79
2022/12/02 00:15:33;;;;;;;;;39.00;27.75;;;;;;;;5103096;27;61848;-78
2022/12/02 00:17:58;;;;;;;;;26.25;22.75;;;;;;;;5101924;27;61987;-79
2022/12/02 00:20:24;;;;;;;;;37.50;29.75;;;;;;;;5103494;27;61798;-79
2022/12/02 00:22:49;;;;;;;;;35.75;27.25;;;;;;;;5103979;27;62620;-79
2022/12/02 00:25:14;;;;;;;;;34.00;30.75;;;;;;;;5104682;27;61811;-79
2022/12/02 00:27:39;;;;;;;;;32.00;27.00;;;;;;;;5103346;27;61816;-79
2022/12/02 00:30:05;;;;;;;;;33.75;29.50;;;;;;;;5103420;27;61755;-79
2022/12/02 00:32:30;;;;;;;;;34.00;29.75;;;;;;;;5102368;27;61794;-79
2022/12/02 00:34:55;;;;;;;;;28.50;24.00;;;;;;;;5104729;27;61802;-79
2022/12/02 00:37:21;;;;;;;;;37.50;29.00;;;;;;;;5104733;27;61925;-79
2022/12/02 00:39:46;;;;;;;;;38.75;28.00;;;;;;;;5103188;27;61870;-79
2022/12/02 00:42:11;;;;;;;;;32.50;26.00;;;;;;;;5104118;27;61766;-79
2022/12/02 00:47:20;;;;;;;;;33.75;27.75;;;;;;;;5104333;27;61683;-79
2022/12/02 00:49:46;;;;;;;;;36.25;32.00;;;;;;;;5102651;27;61934;-78
2022/12/02 00:52:11;;;;;;;;;43.75;33.50;;;;;;;;5103693;27;61696;-79
2022/12/02 00:54:36;;;;;;;;;42.00;29.75;;;;;;;;5103150;27;61914;-79
2022/12/02 00:57:02;;;;;;;;;32.25;27.75;;;;;;;;5104248;27;62087;-79
2022/12/02 00:59:27;;;;;;;;;36.75;33.00;;;;;;;;5104754;27;61755;-79
2022/12/02 01:01:52;;;;;;;;;31.50;26.25;;;;;;;;5102189;27;62788;-78
2022/12/02 01:04:17;;;;;;;;;51.75;32.50;;;;;;;;5103986;27;61769;-79
2022/12/02 01:06:43;;;;;;;;;44.25;27.00;;;;;;;;5103051;27;61795;-79
2022/12/02 01:09:09;;;;;;;;;38.75;27.25;;;;;;;;5104341;27;61737;-80
2022/12/02 01:11:34;;;;;;;;;37.75;29.50;;;;;;;;5102306;27;63846;-79
2022/12/02 01:13:59;;;;;;;;;42.00;28.75;;;;;;;;5103630;27;62125;-79
2022/12/02 01:16:25;;;;;;;;;46.25;34.25;;;;;;;;5103402;27;61990;-79
2022/12/02 01:18:50;;;;;;;;;36.50;28.50;;;;;;;;5102706;27;61802;-78
2022/12/02 01:21:15;;;;;;;;;41.50;31.25;;;;;;;;5103482;27;61732;-78
2022/12/02 01:23:40;;;;;;;;;39.75;29.50;;;;;;;;5103865;27;62017;-79
2022/12/02 01:26:06;;;;;;;;;41.75;33.00;;;;;;;;5103693;27;61852;-79
2022/12/02 01:28:31;;;;;;;;;32.75;27.00;;;;;;;;5102842;27;62081;-79
2022/12/02 01:30:56;;;;;;;;;43.50;30.25;;;;;;;;5100592;27;62963;-79
2022/12/02 01:33:22;;;;;;;;;40.25;26.75;;;;;;;;5103509;27;61689;-79
2022/12/02 01:35:47;;;;;;;;;44.25;36.50;;;;;;;;5104214;27;61724;-79
2022/12/02 01:38:12;;;;;;;;;43.25;31.25;;;;;;;;5103962;27;61691;-78
2022/12/02 01:40:38;;;;;;;;;34.75;28.75;;;;;;;;5101453;27;62607;-78
2022/12/02 01:43:03;;;;;;;;;41.25;32.50;;;;;;;;5103724;27;62104;-79
2022/12/02 01:45:30;;;;;;;;;34.25;29.00;;;;;;;;5103104;27;61925;-79
2022/12/02 01:47:55;;;;;;;;;35.00;30.00;;;;;;;;5103905;27;61669;-79
2022/12/02 01:50:21;;;;;;;;;36.00;30.25;;;;;;;;5101059;27;63553;-79
2022/12/02 01:52:46;;;;;;;;;40.50;26.00;;;;;;;;5102009;27;61771;-79
2022/12/02 01:55:14;;;;;;;;;39.50;31.25;;;;;;;;5101813;27;61691;-79
2022/12/02 01:57:39;;;;;;;;;43.00;30.00;;;;;;;;5102528;27;61929;-79
2022/12/02 02:00:06;;;;;;;;;42.00;28.00;;;;;;;;5102017;27;61789;-79
2022/12/02 02:02:34;;;;;;;;;36.00;30.25;;;;;;;;5100988;27;61973;-79
2022/12/02 02:05:01;;;;;;;;;41.25;29.50;;;;;;;;5103566;27;61907;-78
2022/12/02 02:07:27;;;;;;;;;38.25;25.50;;;;;;;;5101853;27;62139;-79
2022/12/02 02:09:54;;;;;;;;;33.25;25.50;;;;;;;;5101366;27;62990;-79
2022/12/02 02:12:20;;;;;;;;;36.00;28.50;;;;;;;;5101505;27;62169;-79
2022/12/02 02:14:46;;;;;;;;;12.75;1.75;;;;;;;;5103158;27;61773;-79
2022/12/02 02:17:11;;;;;;;;;39.25;23.25;;;;;;;;5102787;27;61849;-79
2022/12/02 02:19:36;;;;;;;;;42.25;29.75;;;;;;;;5101993;27;62530;-79
2022/12/02 02:22:04;;;;;;;;;37.00;30.50;;;;;;;;5101580;27;61840;-78
2022/12/02 02:24:29;;;;;;;;;35.75;30.50;;;;;;;;5102876;27;61691;-79
2022/12/02 02:26:55;;;;;;;;;40.00;28.75;;;;;;;;5101816;27;61788;-78
2022/12/02 02:29:20;;;;;;;;;36.75;31.75;;;;;;;;5100358;27;63446;-79
2022/12/02 02:31:45;;;;;;;;;25.50;21.50;;;;;;;;5101054;27;61939;-79
2022/12/02 02:34:11;;;;;;;;;40.25;26.00;;;;;;;;5101605;27;62020;-79
2022/12/02 02:36:36;;;;;;;;;39.50;27.50;;;;;;;;5102988;27;61942;-79
2022/12/02 02:39:01;;;;;;;;;33.00;27.75;;;;;;;;5100809;27;62849;-79
2022/12/02 02:41:27;;;;;;;;;39.00;24.75;;;;;;;;5100099;27;61796;-79
2022/12/02 02:43:53;;;;;;;;;35.50;25.50;;;;;;;;5100734;27;62387;-78
2022/12/02 02:46:18;;;;;;;;;37.75;29.50;;;;;;;;5102629;27;61737;-79
2022/12/02 02:48:44;;;;;;;;;44.00;26.00;;;;;;;;5101664;27;61797;-79
2022/12/02 02:51:11;;;;;;;;;33.00;29.00;;;;;;;;5102621;27;61812;-79
2022/12/02 02:53:36;;;;;;;;;33.75;27.75;;;;;;;;5102423;27;62334;-79
2022/12/02 02:56:02;;;;;;;;;30.50;23.25;;;;;;;;5103000;27;61689;-79
2022/12/02 02:58:27;;;;;;;;;24.25;21.25;;;;;;;;5101416;27;61984;-78
2022/12/02 03:00:56;;;;;;;;;41.00;31.00;;;;;;;;5101070;27;61784;-79
2022/12/02 03:03:23;;;;;;;;;33.25;28.50;;;;;;;;5100595;27;61854;-79
2022/12/02 03:05:50;;;;;;;;;36.00;28.25;;;;;;;;5101332;27;61843;-79
2022/12/02 03:08:15;;;;;;;;;33.50;29.50;;;;;;;;5101967;27;61784;-79
2022/12/02 03:10:41;;;;;;;;;29.25;24.50;;;;;;;;5102122;27;61798;-79
2022/12/02 03:13:07;;;;;;;;;39.25;27.00;;;;;;;;5101967;27;61822;-78
2022/12/02 03:15:32;;;;;;;;;39.75;28.00;;;;;;;;5102390;27;61719;-79
2022/12/02 03:17:57;;;;;;;;;38.75;23.75;;;;;;;;5101832;27;61862;-79
2022/12/02 03:20:23;;;;;;;;;40.50;28.75;;;;;;;;5100162;27;61875;-78
2022/12/02 03:22:49;;;;;;;;;37.25;27.50;;;;;;;;5100890;27;61808;-79
2022/12/02 03:25:14;;;;;;;;;27.25;25.25;;;;;;;;5102650;27;61753;-79
2022/12/02 03:27:40;;;;;;;;;32.75;28.50;;;;;;;;5100978;27;61755;-79
2022/12/02 03:30:05;;;;;;;;;39.00;28.00;;;;;;;;5101632;27;61864;-79
2022/12/02 03:32:31;;;;;;;;;37.50;25.25;;;;;;;;5102050;27;61677;-79
2022/12/02 03:34:57;;;;;;;;;36.00;28.00;;;;;;;;5102564;27;61665;-79
2022/12/02 03:37:22;;;;;;;;;39.00;28.25;;;;;;;;5101523;27;61906;-79
2022/12/02 03:39:48;;;;;;;;;39.25;29.75;;;;;;;;5101976;27;61668;-78
2022/12/02 03:42:13;;;;;;;;;33.00;26.75;;;;;;;;5101472;27;61696;-79
2022/12/02 03:44:38;;;;;;;;;37.75;25.50;;;;;;;;5102104;27;62051;-79
2022/12/02 03:47:04;;;;;;;;;37.50;27.00;;;;;;;;5101214;27;62084;-79
2022/12/02 03:49:31;;;;;;;;;28.25;25.00;;;;;;;;5099896;27;62004;-78
2022/12/02 03:51:57;;;;;;;;;33.00;28.50;;;;;;;;5100596;27;61823;-78
2022/12/02 03:54:22;;;;;;;;;35.00;26.25;;;;;;;;5105112;27;61840;-78
2022/12/02 03:56:47;;;;;;;;;34.00;24.50;;;;;;;;5104425;27;62677;-79
2022/12/02 03:59:18;;;;;;;;;38.25;26.25;;;;;;;;5105208;27;61882;-78
2022/12/02 04:01:43;;;;;;;;;36.00;27.50;;;;;;;;5103144;27;61761;-78
2022/12/02 04:04:09;;;;;;;;;46.25;28.25;;;;;;;;5105191;27;61708;-79
2022/12/02 04:06:34;;;;;;;;;29.75;24.00;;;;;;;;5104726;27;61960;-79
2022/12/02 04:08:59;;;;;;;;;39.75;25.00;;;;;;;;5104303;27;62093;-78
2022/12/02 04:11:25;;;;;;;;;31.75;27.25;;;;;;;;5105344;27;61693;-79
2022/12/02 04:13:50;;;;;;;;;37.25;28.50;;;;;;;;5103588;27;61821;-79
2022/12/02 04:16:15;;;;;;;;;36.50;26.50;;;;;;;;5104426;27;61921;-79
2022/12/02 04:18:40;;;;;;;;;33.00;25.00;;;;;;;;5104121;27;61872;-78
2022/12/02 04:21:06;;;;;;;;;36.00;23.75;;;;;;;;5105208;27;61937;-79
2022/12/02 04:23:31;;;;;;;;;30.75;24.25;;;;;;;;5104703;27;61787;-78
2022/12/02 04:25:56;;;;;;;;;43.00;26.00;;;;;;;;5102535;27;61971;-78
2022/12/02 04:28:21;;;;;;;;;42.25;24.50;;;;;;;;5104603;27;62074;-78
2022/12/02 04:30:47;;;;;;;;;32.00;27.50;;;;;;;;5103043;27;62080;-79
2022/12/02 04:33:12;;;;;;;;;28.25;23.75;;;;;;;;5103434;27;61762;-78
2022/12/02 04:35:37;;;;;;;;;42.00;29.25;;;;;;;;5104391;27;61782;-79
2022/12/02 04:38:03;;;;;;;;;23.25;21.75;;;;;;;;5103841;27;61751;-79
2022/12/02 04:40:28;;;;;;;;;38.75;30.00;;;;;;;;5103476;27;61742;-79
2022/12/02 04:42:55;;;;;;;;;40.50;28.50;;;;;;;;5103246;27;62316;-79
2022/12/02 04:45:20;;;;;;;;;41.50;27.25;;;;;;;;5103824;27;61759;-79
2022/12/02 04:47:45;;;;;;;;;33.25;27.75;;;;;;;;5103151;27;61927;-79
2022/12/02 04:50:11;;;;;;;;;27.00;26.00;;;;;;;;5102853;27;61902;-79
2022/12/02 04:52:36;;;;;;;;;34.50;29.75;;;;;;;;5102906;27;61999;-80
2022/12/02 04:55:01;;;;;;;;;35.75;25.25;;;;;;;;5103847;27;61712;-79
2022/12/02 04:57:27;;;;;;;;;41.75;30.75;;;;;;;;5104763;27;61976;-80
2022/12/02 04:59:52;;;;;;;;;35.75;32.00;;;;;;;;5104555;27;61674;-80
2022/12/02 05:02:17;;;;;;;;;32.00;25.50;;;;;;;;5102106;27;61818;-79
2022/12/02 05:04:42;;;;;;;;;40.50;28.50;;;;;;;;5103010;27;63006;-80
2022/12/02 05:07:08;;;;;;;;;32.50;28.00;;;;;;;;5102422;27;61746;-79
2022/12/02 05:09:33;;;;;;;;;49.00;32.75;;;;;;;;5103004;27;61825;-80
2022/12/02 05:11:58;;;;;;;;;34.25;26.50;;;;;;;;5103041;27;61971;-79
2022/12/02 05:14:24;;;;;;;;;35.75;25.00;;;;;;;;5101832;27;61840;-80
2022/12/02 05:16:49;;;;;;;;;41.50;35.50;;;;;;;;5103602;27;62798;-80
2022/12/02 05:19:14;;;;;;;;;46.75;28.00;;;;;;;;5103680;27;61920;-79
2022/12/02 05:21:39;;;;;;;;;52.00;26.25;;;;;;;;5104232;27;62340;-79
2022/12/02 05:24:05;;;;;;;;;41.50;26.75;;;;;;;;5101945;27;62128;-79
2022/12/02 05:26:30;;;;;;;;;37.25;30.25;;;;;;;;5102582;27;61916;-80
2022/12/02 05:28:55;;;;;;;;;42.00;30.50;;;;;;;;5102824;27;61915;-80
2022/12/02 05:31:21;;;;;;;;;39.75;31.00;;;;;;;;5102312;27;62047;-79
2022/12/02 05:33:46;;;;;;;;;45.75;30.00;;;;;;;;5101727;27;63119;-80
2022/12/02 05:36:11;;;;;;;;;38.50;31.00;;;;;;;;5103609;27;62079;-79
2022/12/02 05:38:39;;;;;;;;;38.75;25.00;;;;;;;;5103888;27;61847;-79
2022/12/02 05:41:05;;;;;;;;;38.50;29.00;;;;;;;;5102583;27;62165;-79
2022/12/02 05:43:35;;;;;;;;;44.25;31.75;;;;;;;;5101789;27;61948;-80
2022/12/02 05:46:05;;;;;;;;;42.75;28.50;;;;;;;;5103458;27;62047;-79
2022/12/02 05:48:36;;;;;;;;;41.25;28.00;;;;;;;;5101889;27;61629;-79
2022/12/02 05:51:05;;;;;;;;;34.25;12.00;;;;;;;;5103832;27;62112;-79
2022/12/02 05:53:31;;;;;;;;;28.00;24.50;;;;;;;;5102796;27;62422;-80
2022/12/02 05:55:56;;;;;;;;;35.00;25.75;;;;;;;;5102125;27;61854;-79
2022/12/02 05:58:22;;;;;;;;;41.50;35.75;;;;;;;;5101937;27;61891;-80
2022/12/02 06:00:52;;;;;;;;;40.00;31.00;;;;;;;;5101943;27;62263;-79
2022/12/02 06:03:18;;;;;;;;;49.75;32.50;;;;;;;;5101055;27;63349;-79
2022/12/02 06:05:43;;;;;;;;;38.50;30.00;;;;;;;;5101634;27;61793;-79
2022/12/02 06:08:19;;;;;;;;;54.50;33.75;;;;;;;;5103319;27;61894;-77
2022/12/02 06:10:50;;;;;;;;;56.25;32.00;;;;;;;;5101809;27;61700;-80
2022/12/02 06:13:18;;;;;;;;;46.25;32.75;;;;;;;;5102599;27;62091;-78
2022/12/02 06:15:44;;;;;;;;;42.50;28.75;;;;;;;;5101551;27;62110;-79
2022/12/02 06:18:14;;;;;;;;;44.00;31.25;;;;;;;;5101651;27;61925;-78
2022/12/02 06:20:40;;;;;;;;;37.25;32.00;;;;;;;;5101673;27;61719;-80
2022/12/02 06:23:09;;;;;;;;;38.50;33.75;;;;;;;;5102087;27;63671;-77
2022/12/02 06:25:35;;;;;;;;;37.50;31.25;;;;;;;;5101643;27;61855;-76
2022/12/02 06:28:09;;;;;;;;;40.25;32.25;;;;;;;;5102985;27;61995;-77
2022/12/02 06:30:34;;;;;;;;;44.50;35.25;;;;;;;;5103122;27;61858;-78
2022/12/02 06:32:59;;;;;;;;;48.25;36.75;;;;;;;;5100845;27;63118;-77
2022/12/02 06:35:26;;;;;;;;;47.50;35.25;;;;;;;;5101512;27;61726;-77
2022/12/02 06:37:56;;;;;;;;;47.50;36.25;;;;;;;;5101445;27;61759;-79
2022/12/02 06:40:26;;;;;;;;;37.50;32.00;;;;;;;;5101889;27;61900;-78
2022/12/02 06:42:51;;;;;;;;;49.75;37.00;;;;;;;;5098492;27;61882;-76
2022/12/02 06:45:31;;;;;;;;;48.50;35.25;;;;;;;;5100767;27;61864;-77
2022/12/02 06:48:02;;;;;;;;;40.50;33.00;;;;;;;;5100906;27;62173;-79
2022/12/02 06:50:28;;;;;;;;;46.00;31.00;;;;;;;;5100289;27;62121;-78
2022/12/02 06:52:58;;;;;;;;;37.50;27.50;;;;;;;;5100714;27;62577;-78
2022/12/02 06:55:31;;;;;;;;;36.50;29.50;;;;;;;;5102009;27;62049;-78
2022/12/02 06:58:06;;;;;;;;;36.00;29.50;;;;;;;;5101533;27;62331;-76
2022/12/02 07:00:32;;;;;;;;;45.25;36.50;;;;;;;;5101549;27;61967;-77
2022/12/02 07:02:57;;;;;;;;;46.25;33.00;;;;;;;;5099860;27;61838;-77
2022/12/02 07:05:23;;;;;;;;;39.75;30.75;;;;;;;;5101684;27;62005;-77
2022/12/02 07:07:48;;;;;;;;;36.75;28.00;;;;;;;;5101691;27;62100;-76
2022/12/02 07:10:21;;;;;;;;;47.50;33.50;;;;;;;;5102225;27;61746;-78
2022/12/02 07:12:47;;;;;;;;;48.00;32.50;;;;;;;;5100409;27;62168;-76
2022/12/02 07:15:22;;;;;;;;;42.75;35.00;;;;;;;;5100459;27;61747;-78
2022/12/02 07:17:47;;;;;;;;;52.50;36.25;;;;;;;;5101492;27;61996;-78
2022/12/02 07:20:18;;;;;;;;;44.00;35.25;;;;;;;;5101956;27;62020;-79
2022/12/02 07:23:09;;;;;;;;;36.00;32.75;;;;;;;;5101599;27;62684;-80
2022/12/02 07:25:34;;;;;;;;;42.00;34.00;;;;;;;;5077714;27;61863;-80
2022/12/02 07:28:01;;;;;;;;;46.75;29.00;;;;;;;;5103850;27;61766;-79
2022/12/02 07:30:39;;;;;;;;;41.50;34.75;;;;;;;;5105411;27;61659;-79
2022/12/02 07:33:04;;;;;;;;;44.50;31.25;;;;;;;;5104333;27;61692;-79
2022/12/02 07:35:30;;;;;;;;;47.25;37.50;;;;;;;;5105273;27;61870;-78
2022/12/02 07:37:56;;;;;;;;;44.00;29.75;;;;;;;;5104103;27;62065;-78
2022/12/02 07:40:22;;;;;;;;;54.00;35.50;;;;;;;;5105608;27;61917;-79
2022/12/02 07:42:47;;;;;;;;;43.00;35.25;;;;;;;;5103706;27;61968;-80
2022/12/02 07:45:14;;;;;;;;;47.25;35.50;;;;;;;;5102897;27;62078;-79
2022/12/02 07:47:40;;;;;;;;;56.25;40.00;;;;;;;;5092876;27;61833;-79
2022/12/02 07:50:07;;;;;;;;;42.25;36.00;;;;;;;;5094363;27;62136;-79
2022/12/02 07:52:32;;;;;;;;;32.50;20.25;;;;;;;;5103208;27;64470;-80
2022/12/02 07:54:59;;;;;;;;;51.75;39.75;;;;;;;;5103435;27;62008;-79
2022/12/02 07:57:25;;;;;;;;;48.00;37.00;;;;;;;;5103190;27;62466;-79
2022/12/02 07:59:50;;;;;;;;;45.25;38.00;;;;;;;;5104986;27;61835;-80
2022/12/02 08:02:15;;;;;;;;;44.50;32.25;;;;;;;;5101042;27;63532;-79
2022/12/02 08:04:41;;;;;;;;;52.75;36.75;;;;;;;;5112388;27;62026;-80
2022/12/02 08:07:06;;;;;;;;;51.50;34.50;;;;;;;;5114386;27;61955;-80
2022/12/02 08:09:31;;;;;;;;;39.75;31.75;;;;;;;;5125987;27;61777;-79
2022/12/02 08:11:56;;;;;;;;;50.75;37.25;;;;;;;;5125255;27;61881;-79
2022/12/02 08:14:22;;;;;;;;;47.50;37.00;;;;;;;;5125497;27;61738;-79
2022/12/02 08:16:47;;;;;;;;;46.00;37.75;;;;;;;;5124906;27;62056;-78
2022/12/02 08:19:12;;;;;;;;;58.00;38.00;;;;;;;;5124900;27;61898;-79
2022/12/02 08:21:39;;;;;;;;;58.00;41.75;;;;;;;;5112529;27;61981;-80
2022/12/02 08:24:05;;;;;;;;;57.25;41.00;;;;;;;;5103217;27;61847;-79
2022/12/02 08:26:30;;;;;;;;;54.25;40.75;;;;;;;;5103674;27;61853;-79
2022/12/02 08:28:55;;;;;;;;;43.00;37.50;;;;;;;;5104946;27;61895;-80
2022/12/02 08:31:21;;;;;;;;;59.25;41.50;;;;;;;;5101819;27;62080;-80
2022/12/02 08:33:46;;;;;;;;;39.25;34.25;;;;;;;;5103238;27;61762;-81
2022/12/02 08:36:11;;;;;;;;;54.00;40.25;;;;;;;;5104405;27;61634;-79
2022/12/02 08:38:37;;;;;;;;;54.50;41.50;;;;;;;;5102357;27;61697;-78
2022/12/02 08:41:02;;;;;;;;;59.50;40.50;;;;;;;;5102327;27;61889;-79
2022/12/02 08:43:27;;;;;;;;;57.25;41.50;;;;;;;;5102787;27;61718;-78
2022/12/02 08:45:53;;;;;;;;;65.00;43.25;;;;;;;;5103628;27;61679;-78
2022/12/02 08:48:18;;;;;;;;;57.75;39.25;;;;;;;;5104875;27;61906;-80
2022/12/02 08:50:43;;;;;;;;;57.25;38.50;;;;;;;;5102650;27;62855;-79
2022/12/02 08:53:08;;;;;;;;;56.00;40.75;;;;;;;;5104575;27;61698;-79
2022/12/02 08:55:34;;;;;;;;;58.00;42.50;;;;;;;;5104105;27;61692;-79
2022/12/02 08:57:59;;;;;;;;;54.00;38.50;;;;;;;;5103390;27;61717;-78
2022/12/02 09:00:24;;;;;;;;;56.25;41.75;;;;;;;;5103031;27;63082;-79
2022/12/02 09:02:50;;;;;;;;;61.75;45.75;;;;;;;;5101575;27;62049;-79
2022/12/02 09:05:15;;;;;;;;;53.25;39.75;;;;;;;;5088096;27;61862;-79
2022/12/02 09:07:41;;;;;;;;;57.75;44.75;;;;;;;;5082518;28;61837;-79
2022/12/02 09:10:07;;;;;;;;;60.50;46.75;;;;;;;;5081758;28;63141;-79
2022/12/02 09:12:32;;;;;;;;;59.50;41.50;;;;;;;;5083562;28;62201;-80
2022/12/02 09:14:58;;;;;;;;;57.50;43.00;;;;;;;;5082898;28;61752;-79
2022/12/02 09:17:23;;;;;;;;;61.50;46.75;;;;;;;;5083476;28;62129;-80
2022/12/02 09:19:48;;;;;;;;;54.25;41.25;;;;;;;;5098082;27;62761;-79
2022/12/02 09:22:13;;;;;;;;;56.00;42.50;;;;;;;;5103871;27;61783;-79
2022/12/02 09:24:39;;;;;;;;;59.75;41.75;;;;;;;;5102339;27;61842;-78
2022/12/02 09:27:04;;;;;;;;;59.50;40.00;;;;;;;;5102968;27;61953;-79
2022/12/02 09:29:29;;;;;;;;;55.75;43.25;;;;;;;;5102660;27;62680;-80
2022/12/02 09:31:55;;;;;;;;;62.50;46.75;;;;;;;;5103113;27;61670;-79
2022/12/02 09:34:20;;;;;;;;;62.50;45.75;;;;;;;;5102466;27;61920;-79
2022/12/02 09:36:46;;;;;;;;;67.00;49.00;;;;;;;;5103933;27;61749;-80
2022/12/02 09:39:11;;;;;;;;;58.75;41.25;;;;;;;;5103016;27;61767;-79
2022/12/02 09:41:37;;;;;;;;;72.00;46.25;;;;;;;;5103601;27;61945;-80
2022/12/02 09:44:02;;;;;;;;;51.50;36.50;;;;;;;;5102846;27;61810;-79
2022/12/02 09:46:28;;;;;;;;;51.75;40.25;;;;;;;;5102283;27;61829;-80
2022/12/02 09:48:55;;;;;;;;;61.75;45.50;;;;;;;;5102285;27;61832;-78
2022/12/02 09:51:20;;;;;;;;;58.25;41.50;;;;;;;;5102934;27;61845;-77
2022/12/02 09:53:46;;;;;;;;;55.00;39.50;;;;;;;;5103570;27;61860;-79
2022/12/02 09:56:21;;;;;;;;;58.00;40.50;;;;;;;;5103471;27;61957;-80
2022/12/02 09:58:48;;;;;;;;;54.25;42.25;;;;;;;;5101193;27;61869;-79
2022/12/02 10:01:14;;;;;;;;;60.75;46.75;;;;;;;;5101357;27;61912;-78
2022/12/02 10:03:39;;;;;;;;;65.75;46.00;;;;;;;;5103098;27;61902;-80
2022/12/02 10:06:06;;;;;;;;;56.25;40.25;;;;;;;;5088426;27;62162;-79
2022/12/02 10:08:32;;;;;;;;;50.50;40.25;;;;;;;;5082352;28;62768;-79
2022/12/02 10:10:57;;;;;;;;;57.75;41.00;;;;;;;;5082652;28;61814;-80
2022/12/02 10:13:26;;;;;;;;;57.75;42.00;;;;;;;;5088593;27;61774;-81
2022/12/02 10:15:51;;;;;;;;;61.75;45.00;;;;;;;;5102990;27;61832;-81
2022/12/02 10:18:21;;;;;;;;;43.75;37.50;;;;;;;;5101206;27;61773;-81
2022/12/02 10:20:46;;;;;;;;;57.25;41.00;;;;;;;;5101078;27;61793;-81
2022/12/02 10:23:14;;;;;;;;;66.00;43.50;;;;;;;;5102998;27;61673;-82
2022/12/02 10:25:41;;;;;;;;;57.50;40.00;;;;;;;;5103405;27;61731;-82
2022/12/02 10:28:17;;;;;;;;;59.75;43.75;;;;;;;;5100327;27;62135;-81
2022/12/02 10:30:48;;;;;;;;;62.00;40.25;;;;;;;;5101176;27;61920;-82
2022/12/02 10:33:13;;;;;;;;;63.75;43.25;;;;;;;;5101431;27;61817;-82
2022/12/02 10:35:44;;;;;;;;;62.00;45.75;;;;;;;;5101751;27;61722;-83
2022/12/02 10:38:25;;;;;;;;;59.50;42.50;;;;;;;;5100890;27;61865;-82
2022/12/02 10:40:50;;;;;;;;;59.75;45.75;;;;;;;;5101207;27;61687;-80
2022/12/02 10:43:18;;;;;;;;;61.50;45.25;;;;;;;;5102210;27;61960;-80
2022/12/02 10:45:55;;;;;;;;;55.75;43.75;;;;;;;;5101357;27;61905;-82
2022/12/02 10:48:21;;;;;;;;;58.25;43.25;;;;;;;;5102004;27;62118;-81
2022/12/02 10:50:47;;;;;;;;;68.75;42.00;;;;;;;;5100733;27;61942;-80
2022/12/02 10:53:13;;;;;;;;;60.25;43.25;;;;;;;;5102110;27;61688;-82
2022/12/02 10:55:38;;;;;;;;;61.00;41.25;;;;;;;;5101132;27;61741;-81
2022/12/02 10:58:04;;;;;;;;;55.75;41.25;;;;;;;;5101913;27;61912;-81
2022/12/02 11:00:29;;;;;;;;;56.75;39.25;;;;;;;;5100868;27;61703;-81
2022/12/02 11:02:56;;;;;;;;;51.50;38.00;;;;;;;;5103405;27;61878;-80
2022/12/02 11:05:23;;;;;;;;;65.50;46.00;;;;;;;;5103266;27;61741;-81
2022/12/02 11:07:56;;;;;;;;;65.25;46.00;;;;;;;;5105532;27;62041;-80
2022/12/02 11:10:22;;;;;;;;;57.25;42.50;;;;;;;;5104419;27;62083;-80
2022/12/02 11:12:47;;;;;;;;;41.00;31.50;;;;;;;;5104810;27;62040;-80
2022/12/02 11:15:32;;;;;;;;;58.00;43.00;;;;;;;;5104719;27;61851;-80
2022/12/02 11:17:57;;;;;;;;;53.25;36.75;;;;;;;;5104213;27;61822;-80
2022/12/02 11:20:29;;;;;;;;;60.25;42.25;;;;;;;;5103062;27;61972;-80
2022/12/02 11:22:57;;;;;;;;;56.00;41.75;;;;;;;;5104589;27;61947;-80
2022/12/02 11:25:58;;;;;;;;;49.00;40.75;;;;;;;;5101982;27;62431;-81
2022/12/02 11:28:29;;;;;;;;;58.50;42.25;;;;;;;;5060740;28;62041;-81
2022/12/02 11:31:09;;;;;;;;;49.75;39.50;;;;;;;;5059596;28;61883;-83
2022/12/02 11:33:47;;;;;;;;;65.00;42.50;;;;;;;;5062095;28;61786;-81
2022/12/02 11:36:14;;;;;;;;;54.00;41.00;;;;;;;;5045630;28;62035;-81
2022/12/02 11:38:44;;;;;;;;;59.75;44.00;;;;;;;;5061969;28;61964;-81
2022/12/02 11:41:10;;;;;;;;;55.00;41.00;;;;;;;;5062254;28;62002;-81
2022/12/02 11:43:45;;;;;;;;;48.50;38.25;;;;;;;;5045238;28;61869;-80
2022/12/02 11:46:11;;;;;;;;;53.50;39.25;;;;;;;;5062053;28;62026;-79
2022/12/02 11:48:51;;;;;;;;;51.75;40.75;;;;;;;;5043990;28;62196;-79
2022/12/02 11:51:37;;;;;;;;;48.00;37.50;;;;;;;;5062083;28;61830;-80
2022/12/02 11:54:03;;;;;;;;;47.50;39.25;;;;;;;;5044239;28;62084;-78
2022/12/02 11:56:35;;;;;;;;;58.50;42.25;;;;;;;;5045870;28;61945;-80
2022/12/02 11:59:18;;;;;;;;;57.25;37.50;;;;;;;;5078430;28;61964;-81
2022/12/02 12:01:44;;;;;;;;;60.75;44.25;;;;;;;;5054612;27;62179;-79
2022/12/02 12:04:21;;;;;;;;;56.50;39.50;;;;;;;;5105235;27;61923;-80
2022/12/02 12:06:57;;;;;;;;;65.50;38.25;;;;;;;;5083520;28;62179;-79
2022/12/02 12:09:23;;;;;;;;;51.25;39.50;;;;;;;;5098131;27;63764;-78
2022/12/02 12:12:07;;;;;;;;;63.00;43.75;;;;;;;;5103880;27;62052;-78
2022/12/02 12:14:32;;;;;;;;;67.00;44.75;;;;;;;;5102417;27;61877;-78
2022/12/02 12:17:28;;;;;;;;;62.00;42.50;;;;;;;;5102214;27;62001;-78
2022/12/02 12:19:53;;;;;;;;;58.50;43.00;;;;;;;;5101546;27;62056;-78
2022/12/02 12:22:28;;;;;;;;;54.75;41.00;;;;;;;;5101990;27;61967;-77
2022/12/02 12:24:54;;;;;;;;;37.50;30.25;;;;;;;;5100085;27;61774;-78
2022/12/02 12:27:33;;;;;;;;;54.25;38.75;;;;;;;;5103047;27;62306;-77
2022/12/02 12:29:59;;;;;;;;;56.75;42.75;;;;;;;;5101673;27;62087;-78
2022/12/02 12:32:24;;;;;;;;;63.25;43.25;;;;;;;;5101312;27;62076;-78
2022/12/02 12:34:49;;;;;;;;;48.25;37.00;;;;;;;;5101335;27;61793;-81
2022/12/02 12:37:15;;;;;;;;;61.00;44.00;;;;;;;;5102305;27;62158;-80
2022/12/02 12:39:40;;;;;;;;;57.75;40.25;;;;;;;;5104135;27;61926;-80
2022/12/02 12:42:05;;;;;;;;;66.25;46.25;;;;;;;;5103374;27;62044;-81
2022/12/02 12:44:30;;;;;;;;;63.25;46.25;;;;;;;;5103731;27;61908;-81
2022/12/02 12:46:58;;;;;;;;;49.00;34.25;;;;;;;;5101942;27;62002;-79
2022/12/02 12:49:23;;;;;;;;;57.00;44.50;;;;;;;;5100133;27;61867;-80
2022/12/02 12:51:48;;;;;;;;;48.00;36.25;;;;;;;;5102463;27;61994;-80
2022/12/02 12:54:14;;;;;;;;;60.25;41.00;;;;;;;;5103363;27;62174;-81
2022/12/02 12:56:39;;;;;;;;;56.25;37.00;;;;;;;;5102118;27;62073;-80
2022/12/02 12:59:04;;;;;;;;;61.50;43.00;;;;;;;;5100822;27;61905;-79
2022/12/02 13:01:30;;;;;;;;;56.75;40.00;;;;;;;;5101925;27;62099;-79
2022/12/02 13:03:55;;;;;;;;;59.00;44.25;;;;;;;;5101588;27;61904;-80
2022/12/02 13:06:20;;;;;;;;;57.00;40.00;;;;;;;;5101461;27;61719;-79
2022/12/02 13:08:46;;;;;;;;;56.75;41.75;;;;;;;;5101102;27;63610;-80
2022/12/02 13:11:11;;;;;;;;;57.75;43.00;;;;;;;;5102710;27;61813;-78
2022/12/02 13:13:36;;;;;;;;;58.50;40.50;;;;;;;;5101379;27;62411;-79
2022/12/02 13:16:01;;;;;;;;;53.00;39.75;;;;;;;;5099668;27;62257;-79
2022/12/02 13:18:27;;;;;;;;;56.25;41.75;;;;;;;;5101034;27;61858;-78
2022/12/02 13:20:53;;;;;;;;;51.75;37.00;;;;;;;;5101030;27;61958;-79
2022/12/02 13:23:18;;;;;;;;;56.75;39.75;;;;;;;;5101990;27;62010;-79
2022/12/02 13:25:44;;;;;;;;;63.75;46.75;;;;;;;;5101513;27;62222;-79
2022/12/02 13:28:09;;;;;;;;;56.75;38.75;;;;;;;;5100881;27;62035;-80
2022/12/02 13:30:35;;;;;;;;;58.50;42.50;;;;;;;;5101937;27;62064;-80
2022/12/02 13:33:03;;;;;;;;;53.75;37.50;;;;;;;;5099702;27;61998;-80
2022/12/02 13:35:29;;;;;;;;;56.00;42.25;;;;;;;;5101160;27;62009;-79
2022/12/02 13:37:55;;;;;;;;;57.00;44.00;;;;;;;;5099854;27;61804;-79
2022/12/02 13:40:20;;;;;;;;;50.00;36.75;;;;;;;;5101248;27;61736;-80
2022/12/02 13:42:48;;;;;;;;;54.50;38.00;;;;;;;;5099885;27;62463;-80
2022/12/02 13:45:14;;;;;;;;;60.00;40.00;;;;;;;;5099863;27;62055;-79
2022/12/02 13:47:39;;;;;;;;;57.25;43.25;;;;;;;;5100311;27;64610;-80
2022/12/02 13:50:05;;;;;;;;;59.75;42.25;;;;;;;;5100724;27;61880;-79
2022/12/02 13:52:30;;;;;;;;;53.00;41.00;;;;;;;;5107599;27;61990;-79
2022/12/02 13:54:56;;;;;;;;;58.50;39.25;;;;;;;;5102218;27;61769;-79
2022/12/02 13:57:21;;;;;;;;;53.00;38.50;;;;;;;;5100449;27;61915;-80
2022/12/02 13:59:46;;;;;;;;;57.00;37.25;;;;;;;;5103455;27;62268;-80
2022/12/02 14:02:11;;;;;;;;;44.75;37.00;;;;;;;;5106831;27;62051;-80
2022/12/02 14:04:37;;;;;;;;;60.50;43.25;;;;;;;;5109677;27;61941;-79
2022/12/02 14:07:02;;;;;;;;;64.25;39.50;;;;;;;;5116461;27;62240;-79
2022/12/02 14:09:28;;;;;;;;;55.75;37.50;;;;;;;;5110812;27;61724;-79
2022/12/02 14:11:53;;;;;;;;;54.50;39.75;;;;;;;;5116070;27;61721;-79
2022/12/02 14:14:19;;;;;;;;;53.00;36.25;;;;;;;;5106101;27;61931;-80
2022/12/02 14:16:45;;;;;;;;;60.75;40.00;;;;;;;;5120500;27;63625;-80